sensor_id;sensor_type;location;lat;lon;timestamp;P1;durP1;ratioP1;P2;durP2;ratioP2
30303;SDS011;17112;48.636;10.152;2023-07-13T00:01:34;3.40;;;2.10;;
30303;SDS011;17112;48.636;10.152;2023-07-13T00:04:00;7.63;;;2.08;;
30303;SDS011;17112;48.636;10.152;2023-07-13T00:06:26;3.65;;;2.10;;
30303;SDS011;17112;48.636;10.152;2023-07-13T00:08:58;4.43;;;2.10;;
30303;SDS011;17112;48.636;10.152;2023-07-13T00:11:24;4.15;;;1.92;;
30303;SDS011;17112;48.636;10.152;2023-07-13T00:13:50;4.15;;;2.40;;
30303;SDS011;17112;48.636;10.152;2023-07-13T00:16:16;5.10;;;2.25;;
30303;SDS011;17112;48.636;10.152;2023-07-13T00:18:43;4.95;;;2.40;;
30303;SDS011;17112;48.636;10.152;2023-07-13T00:21:10;5.07;;;2.50;;
30303;SDS011;17112;48.636;10.152;2023-07-13T00:23:38;2.67;;;1.98;;
30303;SDS011;17112;48.636;10.152;2023-07-13T00:26:06;4.95;;;2.05;;
30303;SDS011;17112;48.636;10.152;2023-07-13T00:28:34;9.30;;;2.35;;
30303;SDS011;17112;48.636;10.152;2023-07-13T00:31:00;5.55;;;1.92;;
30303;SDS011;17112;48.636;10.152;2023-07-13T00:33:27;5.28;;;2.80;;
30303;SDS011;17112;48.636;10.152;2023-07-13T00:35:54;7.18;;;2.40;;
30303;SDS011;17112;48.636;10.152;2023-07-13T00:38:21;2.80;;;2.17;;
30303;SDS011;17112;48.636;10.152;2023-07-13T00:40:48;5.45;;;1.90;;
30303;SDS011;17112;48.636;10.152;2023-07-13T00:43:15;2.42;;;1.80;;
30303;SDS011;17112;48.636;10.152;2023-07-13T00:48:12;4.22;;;1.80;;
30303;SDS011;17112;48.636;10.152;2023-07-13T00:50:43;4.53;;;1.80;;
30303;SDS011;17112;48.636;10.152;2023-07-13T00:53:11;2.95;;;1.75;;
30303;SDS011;17112;48.636;10.152;2023-07-13T00:55:38;5.75;;;2.03;;
30303;SDS011;17112;48.636;10.152;2023-07-13T00:58:04;3.00;;;2.05;;
30303;SDS011;17112;48.636;10.152;2023-07-13T01:00:31;2.97;;;1.60;;
30303;SDS011;17112;48.636;10.152;2023-07-13T01:03:00;3.38;;;1.90;;
30303;SDS011;17112;48.636;10.152;2023-07-13T01:05:29;4.18;;;2.00;;
30303;SDS011;17112;48.636;10.152;2023-07-13T01:07:57;2.25;;;1.73;;
30303;SDS011;17112;48.636;10.152;2023-07-13T01:10:24;4.22;;;2.10;;
30303;SDS011;17112;48.636;10.152;2023-07-13T01:12:50;3.88;;;1.77;;
30303;SDS011;17112;48.636;10.152;2023-07-13T01:18:11;6.47;;;2.05;;
30303;SDS011;17112;48.636;10.152;2023-07-13T01:20:52;2.70;;;1.75;;
30303;SDS011;17112;48.636;10.152;2023-07-13T01:23:17;8.63;;;2.30;;
30303;SDS011;17112;48.636;10.152;2023-07-13T01:25:44;3.10;;;2.05;;
30303;SDS011;17112;48.636;10.152;2023-07-13T01:28:10;4.03;;;1.92;;
30303;SDS011;17112;48.636;10.152;2023-07-13T01:30:36;3.55;;;1.95;;
30303;SDS011;17112;48.636;10.152;2023-07-13T01:33:04;4.88;;;2.28;;
30303;SDS011;17112;48.636;10.152;2023-07-13T01:35:32;4.78;;;1.60;;
30303;SDS011;17112;48.636;10.152;2023-07-13T01:37:58;7.78;;;2.10;;
30303;SDS011;17112;48.636;10.152;2023-07-13T01:40:25;4.00;;;2.15;;
30303;SDS011;17112;48.636;10.152;2023-07-13T01:42:51;7.95;;;1.85;;
30303;SDS011;17112;48.636;10.152;2023-07-13T01:45:16;3.50;;;1.80;;
30303;SDS011;17112;48.636;10.152;2023-07-13T01:47:42;5.95;;;1.60;;
30303;SDS011;17112;48.636;10.152;2023-07-13T01:50:08;3.17;;;1.52;;
30303;SDS011;17112;48.636;10.152;2023-07-13T01:52:34;1.80;;;1.60;;
30303;SDS011;17112;48.636;10.152;2023-07-13T01:54:59;2.28;;;1.40;;
30303;SDS011;17112;48.636;10.152;2023-07-13T01:57:25;2.47;;;1.42;;
30303;SDS011;17112;48.636;10.152;2023-07-13T01:59:51;12.52;;;1.58;;
30303;SDS011;17112;48.636;10.152;2023-07-13T02:02:16;5.80;;;1.40;;
30303;SDS011;17112;48.636;10.152;2023-07-13T02:04:42;6.15;;;1.40;;
30303;SDS011;17112;48.636;10.152;2023-07-13T02:07:08;3.95;;;1.35;;
30303;SDS011;17112;48.636;10.152;2023-07-13T02:09:34;2.78;;;1.30;;
30303;SDS011;17112;48.636;10.152;2023-07-13T02:12:00;2.88;;;1.10;;
30303;SDS011;17112;48.636;10.152;2023-07-13T02:14:26;3.22;;;1.65;;
30303;SDS011;17112;48.636;10.152;2023-07-13T02:16:51;2.08;;;1.35;;
30303;SDS011;17112;48.636;10.152;2023-07-13T02:19:17;8.85;;;2.03;;
30303;SDS011;17112;48.636;10.152;2023-07-13T02:21:43;4.60;;;1.15;;
30303;SDS011;17112;48.636;10.152;2023-07-13T02:24:08;6.20;;;1.20;;
30303;SDS011;17112;48.636;10.152;2023-07-13T02:26:34;4.15;;;1.30;;
30303;SDS011;17112;48.636;10.152;2023-07-13T02:29:00;2.30;;;1.17;;
30303;SDS011;17112;48.636;10.152;2023-07-13T02:31:26;8.45;;;1.25;;
30303;SDS011;17112;48.636;10.152;2023-07-13T02:33:52;4.68;;;1.30;;
30303;SDS011;17112;48.636;10.152;2023-07-13T02:36:18;2.30;;;1.10;;
30303;SDS011;17112;48.636;10.152;2023-07-13T02:38:45;2.17;;;0.98;;
30303;SDS011;17112;48.636;10.152;2023-07-13T02:41:19;2.78;;;1.10;;
30303;SDS011;17112;48.636;10.152;2023-07-13T02:43:44;3.30;;;1.30;;
30303;SDS011;17112;48.636;10.152;2023-07-13T02:46:10;7.07;;;1.08;;
30303;SDS011;17112;48.636;10.152;2023-07-13T02:48:36;2.70;;;1.02;;
30303;SDS011;17112;48.636;10.152;2023-07-13T02:51:03;2.40;;;1.23;;
30303;SDS011;17112;48.636;10.152;2023-07-13T02:53:29;2.13;;;1.35;;
30303;SDS011;17112;48.636;10.152;2023-07-13T02:55:55;2.55;;;1.30;;
30303;SDS011;17112;48.636;10.152;2023-07-13T02:58:21;4.38;;;1.42;;
30303;SDS011;17112;48.636;10.152;2023-07-13T03:00:47;3.42;;;1.00;;
30303;SDS011;17112;48.636;10.152;2023-07-13T03:03:15;5.13;;;1.13;;
30303;SDS011;17112;48.636;10.152;2023-07-13T03:05:43;2.42;;;1.05;;
30303;SDS011;17112;48.636;10.152;2023-07-13T03:08:10;2.20;;;1.10;;
30303;SDS011;17112;48.636;10.152;2023-07-13T03:10:36;1.25;;;1.15;;
30303;SDS011;17112;48.636;10.152;2023-07-13T03:13:04;2.50;;;1.30;;
30303;SDS011;17112;48.636;10.152;2023-07-13T03:15:30;3.42;;;1.40;;
30303;SDS011;17112;48.636;10.152;2023-07-13T03:17:56;1.20;;;1.10;;
30303;SDS011;17112;48.636;10.152;2023-07-13T03:20:21;2.80;;;0.90;;
30303;SDS011;17112;48.636;10.152;2023-07-13T03:22:47;1.23;;;1.02;;
30303;SDS011;17112;48.636;10.152;2023-07-13T03:25:13;2.28;;;1.10;;
30303;SDS011;17112;48.636;10.152;2023-07-13T03:27:39;2.15;;;1.17;;
30303;SDS011;17112;48.636;10.152;2023-07-13T03:30:05;7.43;;;1.08;;
30303;SDS011;17112;48.636;10.152;2023-07-13T03:32:31;2.08;;;1.10;;
30303;SDS011;17112;48.636;10.152;2023-07-13T03:34:57;2.60;;;1.10;;
30303;SDS011;17112;48.636;10.152;2023-07-13T03:37:23;7.30;;;1.52;;
30303;SDS011;17112;48.636;10.152;2023-07-13T03:39:50;2.90;;;1.27;;
30303;SDS011;17112;48.636;10.152;2023-07-13T03:42:16;3.97;;;1.15;;
30303;SDS011;17112;48.636;10.152;2023-07-13T03:44:42;2.95;;;1.17;;
30303;SDS011;17112;48.636;10.152;2023-07-13T03:47:11;2.42;;;1.00;;
30303;SDS011;17112;48.636;10.152;2023-07-13T03:49:36;3.67;;;1.25;;
30303;SDS011;17112;48.636;10.152;2023-07-13T03:52:02;3.33;;;0.90;;
30303;SDS011;17112;48.636;10.152;2023-07-13T03:54:28;4.30;;;1.10;;
30303;SDS011;17112;48.636;10.152;2023-07-13T03:56:54;1.95;;;1.17;;
30303;SDS011;17112;48.636;10.152;2023-07-13T03:59:20;3.92;;;1.17;;
30303;SDS011;17112;48.636;10.152;2023-07-13T04:01:46;2.13;;;1.10;;
30303;SDS011;17112;48.636;10.152;2023-07-13T04:04:12;2.90;;;1.10;;
30303;SDS011;17112;48.636;10.152;2023-07-13T04:06:38;1.38;;;0.90;;
30303;SDS011;17112;48.636;10.152;2023-07-13T04:09:04;3.05;;;1.00;;
30303;SDS011;17112;48.636;10.152;2023-07-13T04:11:34;1.73;;;1.00;;
30303;SDS011;17112;48.636;10.152;2023-07-13T04:14:01;2.78;;;1.15;;
30303;SDS011;17112;48.636;10.152;2023-07-13T04:16:27;2.30;;;1.10;;
30303;SDS011;17112;48.636;10.152;2023-07-13T04:18:54;4.35;;;1.20;;
30303;SDS011;17112;48.636;10.152;2023-07-13T04:21:24;3.75;;;1.00;;
30303;SDS011;17112;48.636;10.152;2023-07-13T04:23:51;2.58;;;1.05;;
30303;SDS011;17112;48.636;10.152;2023-07-13T04:26:17;6.18;;;1.10;;
30303;SDS011;17112;48.636;10.152;2023-07-13T04:28:46;1.83;;;1.10;;
30303;SDS011;17112;48.636;10.152;2023-07-13T04:31:12;1.77;;;1.02;;
30303;SDS011;17112;48.636;10.152;2023-07-13T04:33:38;3.10;;;1.05;;
30303;SDS011;17112;48.636;10.152;2023-07-13T04:36:04;2.17;;;1.00;;
30303;SDS011;17112;48.636;10.152;2023-07-13T04:38:31;2.97;;;1.08;;
30303;SDS011;17112;48.636;10.152;2023-07-13T04:41:01;2.85;;;1.58;;
30303;SDS011;17112;48.636;10.152;2023-07-13T04:43:29;2.10;;;1.00;;
30303;SDS011;17112;48.636;10.152;2023-07-13T04:45:56;3.28;;;1.30;;
30303;SDS011;17112;48.636;10.152;2023-07-13T04:48:27;3.83;;;1.30;;
30303;SDS011;17112;48.636;10.152;2023-07-13T04:50:56;3.75;;;1.33;;
30303;SDS011;17112;48.636;10.152;2023-07-13T04:53:23;2.13;;;1.20;;
30303;SDS011;17112;48.636;10.152;2023-07-13T04:55:49;2.22;;;0.98;;
30303;SDS011;17112;48.636;10.152;2023-07-13T04:58:15;5.22;;;1.10;;
30303;SDS011;17112;48.636;10.152;2023-07-13T05:00:41;5.68;;;1.02;;
30303;SDS011;17112;48.636;10.152;2023-07-13T05:03:07;3.63;;;1.17;;
30303;SDS011;17112;48.636;10.152;2023-07-13T05:05:32;10.48;;;1.25;;
30303;SDS011;17112;48.636;10.152;2023-07-13T05:07:59;3.90;;;1.10;;
30303;SDS011;17112;48.636;10.152;2023-07-13T05:10:25;7.10;;;1.30;;
30303;SDS011;17112;48.636;10.152;2023-07-13T05:12:50;3.63;;;1.30;;
30303;SDS011;17112;48.636;10.152;2023-07-13T05:15:16;4.72;;;1.08;;
30303;SDS011;17112;48.636;10.152;2023-07-13T05:17:46;2.70;;;0.98;;
30303;SDS011;17112;48.636;10.152;2023-07-13T05:20:12;2.20;;;1.02;;
30303;SDS011;17112;48.636;10.152;2023-07-13T05:22:38;4.38;;;1.02;;
30303;SDS011;17112;48.636;10.152;2023-07-13T05:25:04;1.77;;;0.98;;
30303;SDS011;17112;48.636;10.152;2023-07-13T05:27:31;4.75;;;1.10;;
30303;SDS011;17112;48.636;10.152;2023-07-13T05:29:57;2.05;;;1.15;;
30303;SDS011;17112;48.636;10.152;2023-07-13T05:32:23;4.70;;;1.30;;
30303;SDS011;17112;48.636;10.152;2023-07-13T05:34:48;3.10;;;1.13;;
30303;SDS011;17112;48.636;10.152;2023-07-13T05:37:14;2.05;;;1.20;;
30303;SDS011;17112;48.636;10.152;2023-07-13T05:39:40;8.55;;;1.10;;
30303;SDS011;17112;48.636;10.152;2023-07-13T05:42:05;5.35;;;1.10;;
30303;SDS011;17112;48.636;10.152;2023-07-13T05:44:31;3.80;;;1.17;;
30303;SDS011;17112;48.636;10.152;2023-07-13T05:46:57;4.10;;;1.17;;
30303;SDS011;17112;48.636;10.152;2023-07-13T05:49:23;2.08;;;0.98;;
30303;SDS011;17112;48.636;10.152;2023-07-13T05:51:49;5.75;;;1.40;;
30303;SDS011;17112;48.636;10.152;2023-07-13T05:54:15;3.78;;;1.25;;
30303;SDS011;17112;48.636;10.152;2023-07-13T05:56:40;3.65;;;1.27;;
30303;SDS011;17112;48.636;10.152;2023-07-13T05:59:06;6.00;;;1.33;;
30303;SDS011;17112;48.636;10.152;2023-07-13T06:01:32;2.75;;;1.05;;
30303;SDS011;17112;48.636;10.152;2023-07-13T06:03:58;2.83;;;1.15;;
30303;SDS011;17112;48.636;10.152;2023-07-13T06:06:23;3.42;;;1.10;;
30303;SDS011;17112;48.636;10.152;2023-07-13T06:08:49;3.53;;;1.15;;
30303;SDS011;17112;48.636;10.152;2023-07-13T06:11:19;4.50;;;1.15;;
30303;SDS011;17112;48.636;10.152;2023-07-13T06:13:47;4.05;;;1.10;;
30303;SDS011;17112;48.636;10.152;2023-07-13T06:16:13;5.22;;;1.25;;
30303;SDS011;17112;48.636;10.152;2023-07-13T06:18:39;2.75;;;1.00;;
30303;SDS011;17112;48.636;10.152;2023-07-13T06:21:09;2.45;;;1.10;;
30303;SDS011;17112;48.636;10.152;2023-07-13T06:23:36;2.20;;;1.30;;
30303;SDS011;17112;48.636;10.152;2023-07-13T06:26:02;2.75;;;0.80;;
30303;SDS011;17112;48.636;10.152;2023-07-13T06:28:29;2.75;;;1.10;;
30303;SDS011;17112;48.636;10.152;2023-07-13T06:30:56;3.85;;;1.02;;
30303;SDS011;17112;48.636;10.152;2023-07-13T06:33:23;1.40;;;0.90;;
30303;SDS011;17112;48.636;10.152;2023-07-13T06:35:49;4.63;;;1.05;;
30303;SDS011;17112;48.636;10.152;2023-07-13T06:38:14;2.60;;;1.00;;
30303;SDS011;17112;48.636;10.152;2023-07-13T06:40:40;7.50;;;1.10;;
30303;SDS011;17112;48.636;10.152;2023-07-13T06:43:06;1.92;;;0.82;;
30303;SDS011;17112;48.636;10.152;2023-07-13T06:45:50;2.78;;;1.00;;
30303;SDS011;17112;48.636;10.152;2023-07-13T06:48:19;3.30;;;1.00;;
30303;SDS011;17112;48.636;10.152;2023-07-13T06:50:45;3.38;;;1.33;;
30303;SDS011;17112;48.636;10.152;2023-07-13T06:53:12;4.38;;;1.10;;
30303;SDS011;17112;48.636;10.152;2023-07-13T06:55:38;5.10;;;1.45;;
30303;SDS011;17112;48.636;10.152;2023-07-13T06:58:05;4.70;;;1.13;;
30303;SDS011;17112;48.636;10.152;2023-07-13T07:00:31;3.60;;;1.38;;
30303;SDS011;17112;48.636;10.152;2023-07-13T07:02:57;2.22;;;0.90;;
30303;SDS011;17112;48.636;10.152;2023-07-13T07:05:22;2.53;;;0.82;;
30303;SDS011;17112;48.636;10.152;2023-07-13T07:07:52;2.13;;;0.90;;
30303;SDS011;17112;48.636;10.152;2023-07-13T07:10:19;2.85;;;0.90;;
30303;SDS011;17112;48.636;10.152;2023-07-13T07:12:45;4.30;;;1.00;;
30303;SDS011;17112;48.636;10.152;2023-07-13T07:15:11;1.52;;;0.80;;
30303;SDS011;17112;48.636;10.152;2023-07-13T07:17:37;2.10;;;0.75;;
30303;SDS011;17112;48.636;10.152;2023-07-13T07:20:03;4.32;;;1.10;;
30303;SDS011;17112;48.636;10.152;2023-07-13T07:22:30;3.15;;;1.00;;
30303;SDS011;17112;48.636;10.152;2023-07-13T07:24:56;2.25;;;1.10;;
30303;SDS011;17112;48.636;10.152;2023-07-13T07:27:23;7.65;;;1.83;;
30303;SDS011;17112;48.636;10.152;2023-07-13T07:29:49;2.85;;;0.70;;
30303;SDS011;17112;48.636;10.152;2023-07-13T07:32:15;3.58;;;1.10;;
30303;SDS011;17112;48.636;10.152;2023-07-13T07:34:41;2.38;;;1.00;;
30303;SDS011;17112;48.636;10.152;2023-07-13T07:37:09;2.25;;;1.00;;
30303;SDS011;17112;48.636;10.152;2023-07-13T07:39:37;3.30;;;1.00;;
30303;SDS011;17112;48.636;10.152;2023-07-13T07:42:03;3.50;;;0.93;;
30303;SDS011;17112;48.636;10.152;2023-07-13T07:44:30;3.28;;;0.93;;
30303;SDS011;17112;48.636;10.152;2023-07-13T07:46:56;1.95;;;0.82;;
30303;SDS011;17112;48.636;10.152;2023-07-13T07:49:21;4.97;;;0.88;;
30303;SDS011;17112;48.636;10.152;2023-07-13T07:51:47;4.43;;;0.70;;
30303;SDS011;17112;48.636;10.152;2023-07-13T07:54:13;3.28;;;0.70;;
30303;SDS011;17112;48.636;10.152;2023-07-13T07:56:39;4.47;;;1.00;;
30303;SDS011;17112;48.636;10.152;2023-07-13T07:59:05;3.95;;;0.85;;
30303;SDS011;17112;48.636;10.152;2023-07-13T08:01:31;3.35;;;1.08;;
30303;SDS011;17112;48.636;10.152;2023-07-13T08:03:57;2.90;;;0.93;;
30303;SDS011;17112;48.636;10.152;2023-07-13T08:06:22;4.00;;;0.90;;
30303;SDS011;17112;48.636;10.152;2023-07-13T08:08:48;3.25;;;0.90;;
30303;SDS011;17112;48.636;10.152;2023-07-13T08:11:14;2.08;;;0.80;;
30303;SDS011;17112;48.636;10.152;2023-07-13T08:13:41;1.98;;;0.80;;
30303;SDS011;17112;48.636;10.152;2023-07-13T08:16:06;2.08;;;0.73;;
30303;SDS011;17112;48.636;10.152;2023-07-13T08:18:32;4.53;;;0.73;;
30303;SDS011;17112;48.636;10.152;2023-07-13T08:21:02;4.35;;;0.65;;
30303;SDS011;17112;48.636;10.152;2023-07-13T08:23:29;2.10;;;0.80;;
30303;SDS011;17112;48.636;10.152;2023-07-13T08:25:55;3.78;;;0.68;;
30303;SDS011;17112;48.636;10.152;2023-07-13T08:28:21;3.05;;;0.73;;
30303;SDS011;17112;48.636;10.152;2023-07-13T08:30:47;1.67;;;0.70;;
30303;SDS011;17112;48.636;10.152;2023-07-13T08:33:19;2.92;;;0.80;;
30303;SDS011;17112;48.636;10.152;2023-07-13T08:35:49;2.92;;;0.80;;
30303;SDS011;17112;48.636;10.152;2023-07-13T08:38:16;2.13;;;0.77;;
30303;SDS011;17112;48.636;10.152;2023-07-13T08:40:42;2.67;;;0.90;;
30303;SDS011;17112;48.636;10.152;2023-07-13T08:43:12;7.03;;;1.50;;
30303;SDS011;17112;48.636;10.152;2023-07-13T08:45:51;2.42;;;0.88;;
30303;SDS011;17112;48.636;10.152;2023-07-13T08:48:22;2.75;;;1.10;;
30303;SDS011;17112;48.636;10.152;2023-07-13T08:56:40;2.40;;;0.60;;
30303;SDS011;17112;48.636;10.152;2023-07-13T08:59:10;2.17;;;0.63;;
30303;SDS011;17112;48.636;10.152;2023-07-13T09:05:15;4.88;;;0.80;;
30303;SDS011;17112;48.636;10.152;2023-07-13T09:07:40;2.00;;;0.80;;
30303;SDS011;17112;48.636;10.152;2023-07-13T09:16:06;3.08;;;0.98;;
30303;SDS011;17112;48.636;10.152;2023-07-13T09:18:53;1.95;;;0.82;;
30303;SDS011;17112;48.636;10.152;2023-07-13T09:21:24;3.15;;;1.05;;
30303;SDS011;17112;48.636;10.152;2023-07-13T09:23:59;3.78;;;0.90;;
30303;SDS011;17112;48.636;10.152;2023-07-13T09:26:42;2.33;;;0.80;;
30303;SDS011;17112;48.636;10.152;2023-07-13T09:29:13;2.10;;;0.82;;
30303;SDS011;17112;48.636;10.152;2023-07-13T09:31:47;1.75;;;0.60;;
30303;SDS011;17112;48.636;10.152;2023-07-13T09:34:18;2.72;;;0.65;;
30303;SDS011;17112;48.636;10.152;2023-07-13T09:36:43;1.58;;;0.73;;
30303;SDS011;17112;48.636;10.152;2023-07-13T09:42:03;2.13;;;0.90;;
30303;SDS011;17112;48.636;10.152;2023-07-13T09:44:38;1.90;;;0.90;;
30303;SDS011;17112;48.636;10.152;2023-07-13T09:49:44;2.85;;;0.88;;
30303;SDS011;17112;48.636;10.152;2023-07-13T09:52:11;2.88;;;0.75;;
30303;SDS011;17112;48.636;10.152;2023-07-13T09:54:39;4.63;;;1.05;;
30303;SDS011;17112;48.636;10.152;2023-07-13T09:57:13;1.80;;;0.90;;
30303;SDS011;17112;48.636;10.152;2023-07-13T09:59:45;2.13;;;0.80;;
30303;SDS011;17112;48.636;10.152;2023-07-13T10:05:06;2.55;;;0.93;;
30303;SDS011;17112;48.636;10.152;2023-07-13T10:07:39;3.70;;;1.00;;
30303;SDS011;17112;48.636;10.152;2023-07-13T10:10:18;2.45;;;1.00;;
30303;SDS011;17112;48.636;10.152;2023-07-13T10:12:46;2.47;;;0.80;;
30303;SDS011;17112;48.636;10.152;2023-07-13T10:15:13;4.80;;;1.00;;
30303;SDS011;17112;48.636;10.152;2023-07-13T10:17:45;1.83;;;0.85;;
30303;SDS011;17112;48.636;10.152;2023-07-13T10:20:11;1.20;;;0.90;;
30303;SDS011;17112;48.636;10.152;2023-07-13T10:25:28;2.38;;;0.88;;
30303;SDS011;17112;48.636;10.152;2023-07-13T10:31:00;2.47;;;0.80;;
30303;SDS011;17112;48.636;10.152;2023-07-13T10:33:27;3.33;;;1.00;;
30303;SDS011;17112;48.636;10.152;2023-07-13T10:35:56;2.63;;;0.90;;
30303;SDS011;17112;48.636;10.152;2023-07-13T10:38:38;2.22;;;0.80;;
30303;SDS011;17112;48.636;10.152;2023-07-13T10:41:06;2.70;;;1.00;;
30303;SDS011;17112;48.636;10.152;2023-07-13T10:43:41;3.08;;;0.90;;
30303;SDS011;17112;48.636;10.152;2023-07-13T10:46:11;2.40;;;0.82;;
30303;SDS011;17112;48.636;10.152;2023-07-13T10:48:41;2.45;;;1.02;;
30303;SDS011;17112;48.636;10.152;2023-07-13T10:51:08;2.97;;;1.00;;
30303;SDS011;17112;48.636;10.152;2023-07-13T10:53:37;10.20;;;1.30;;
30303;SDS011;17112;48.636;10.152;2023-07-13T10:58:43;2.30;;;1.20;;
30303;SDS011;17112;48.636;10.152;2023-07-13T11:01:15;1.50;;;0.88;;
30303;SDS011;17112;48.636;10.152;2023-07-13T11:03:49;2.60;;;0.90;;
30303;SDS011;17112;48.636;10.152;2023-07-13T11:08:55;2.92;;;1.15;;
30303;SDS011;17112;48.636;10.152;2023-07-13T11:18:49;2.55;;;1.00;;
30303;SDS011;17112;48.636;10.152;2023-07-13T11:21:21;1.67;;;0.80;;
30303;SDS011;17112;48.636;10.152;2023-07-13T11:24:00;3.92;;;1.10;;
30303;SDS011;17112;48.636;10.152;2023-07-13T11:26:38;4.43;;;0.80;;
30303;SDS011;17112;48.636;10.152;2023-07-13T11:31:57;3.00;;;0.80;;
30303;SDS011;17112;48.636;10.152;2023-07-13T11:34:35;2.83;;;1.25;;
30303;SDS011;17112;48.636;10.152;2023-07-13T11:37:03;2.15;;;0.82;;
30303;SDS011;17112;48.636;10.152;2023-07-13T11:39:36;2.05;;;0.98;;
30303;SDS011;17112;48.636;10.152;2023-07-13T11:42:08;1.42;;;0.70;;
30303;SDS011;17112;48.636;10.152;2023-07-13T11:44:49;1.63;;;1.00;;
30303;SDS011;17112;48.636;10.152;2023-07-13T11:47:20;3.20;;;0.77;;
30303;SDS011;17112;48.636;10.152;2023-07-13T11:49:53;1.95;;;0.88;;
30303;SDS011;17112;48.636;10.152;2023-07-13T11:52:42;2.15;;;0.85;;
30303;SDS011;17112;48.636;10.152;2023-07-13T11:55:18;2.13;;;0.95;;
30303;SDS011;17112;48.636;10.152;2023-07-13T11:57:47;2.30;;;0.90;;
30303;SDS011;17112;48.636;10.152;2023-07-13T12:00:17;1.85;;;0.90;;
30303;SDS011;17112;48.636;10.152;2023-07-13T12:02:48;2.30;;;0.93;;
30303;SDS011;17112;48.636;10.152;2023-07-13T12:05:17;2.65;;;0.93;;
30303;SDS011;17112;48.636;10.152;2023-07-13T12:07:44;2.50;;;0.98;;
30303;SDS011;17112;48.636;10.152;2023-07-13T12:12:53;2.03;;;0.93;;
30303;SDS011;17112;48.636;10.152;2023-07-13T12:15:22;4.45;;;1.10;;
30303;SDS011;17112;48.636;10.152;2023-07-13T12:17:48;2.08;;;1.25;;
30303;SDS011;17112;48.636;10.152;2023-07-13T12:20:19;2.17;;;1.10;;
30303;SDS011;17112;48.636;10.152;2023-07-13T12:23:05;3.30;;;1.00;;
30303;SDS011;17112;48.636;10.152;2023-07-13T12:25:35;3.67;;;1.30;;
30303;SDS011;17112;48.636;10.152;2023-07-13T12:28:01;2.63;;;1.00;;
30303;SDS011;17112;48.636;10.152;2023-07-13T12:30:47;4.38;;;1.20;;
30303;SDS011;17112;48.636;10.152;2023-07-13T12:33:15;2.95;;;0.80;;
30303;SDS011;17112;48.636;10.152;2023-07-13T12:35:44;2.45;;;0.85;;
30303;SDS011;17112;48.636;10.152;2023-07-13T12:38:17;1.38;;;0.73;;
30303;SDS011;17112;48.636;10.152;2023-07-13T12:40:46;4.45;;;1.10;;
30303;SDS011;17112;48.636;10.152;2023-07-13T12:43:15;2.50;;;0.88;;
30303;SDS011;17112;48.636;10.152;2023-07-13T12:48:26;1.88;;;0.82;;
30303;SDS011;17112;48.636;10.152;2023-07-13T12:50:53;1.98;;;1.10;;
30303;SDS011;17112;48.636;10.152;2023-07-13T12:53:23;4.88;;;1.10;;
30303;SDS011;17112;48.636;10.152;2023-07-13T12:55:56;2.35;;;0.90;;
30303;SDS011;17112;48.636;10.152;2023-07-13T12:58:28;4.72;;;0.90;;
30303;SDS011;17112;48.636;10.152;2023-07-13T13:00:57;2.65;;;0.77;;
30303;SDS011;17112;48.636;10.152;2023-07-13T13:03:29;2.28;;;1.02;;
30303;SDS011;17112;48.636;10.152;2023-07-13T13:06:17;4.00;;;1.10;;
30303;SDS011;17112;48.636;10.152;2023-07-13T13:08:51;1.73;;;0.85;;
30303;SDS011;17112;48.636;10.152;2023-07-13T13:11:19;0.82;;;0.65;;
30303;SDS011;17112;48.636;10.152;2023-07-13T13:13:48;2.15;;;0.73;;
30303;SDS011;17112;48.636;10.152;2023-07-13T13:16:17;1.60;;;0.80;;
30303;SDS011;17112;48.636;10.152;2023-07-13T13:18:52;3.90;;;1.10;;
30303;SDS011;17112;48.636;10.152;2023-07-13T13:21:19;4.85;;;1.00;;
30303;SDS011;17112;48.636;10.152;2023-07-13T13:23:45;2.05;;;1.00;;
30303;SDS011;17112;48.636;10.152;2023-07-13T13:26:15;2.90;;;0.88;;
30303;SDS011;17112;48.636;10.152;2023-07-13T13:28:41;2.03;;;0.88;;
30303;SDS011;17112;48.636;10.152;2023-07-13T13:31:09;3.30;;;1.15;;
30303;SDS011;17112;48.636;10.152;2023-07-13T13:33:37;1.40;;;1.05;;
30303;SDS011;17112;48.636;10.152;2023-07-13T13:36:12;2.97;;;0.82;;
30303;SDS011;17112;48.636;10.152;2023-07-13T13:38:40;1.33;;;0.98;;
30303;SDS011;17112;48.636;10.152;2023-07-13T13:41:07;3.70;;;0.80;;
30303;SDS011;17112;48.636;10.152;2023-07-13T13:43:38;3.40;;;0.93;;
30303;SDS011;17112;48.636;10.152;2023-07-13T13:46:05;1.60;;;0.80;;
30303;SDS011;17112;48.636;10.152;2023-07-13T13:48:40;4.30;;;0.80;;
30303;SDS011;17112;48.636;10.152;2023-07-13T13:51:27;3.72;;;1.25;;
30303;SDS011;17112;48.636;10.152;2023-07-13T13:53:52;2.28;;;1.10;;
30303;SDS011;17112;48.636;10.152;2023-07-13T13:56:18;2.50;;;0.90;;
30303;SDS011;17112;48.636;10.152;2023-07-13T13:58:45;2.40;;;0.80;;
30303;SDS011;17112;48.636;10.152;2023-07-13T14:01:12;4.78;;;0.93;;
30303;SDS011;17112;48.636;10.152;2023-07-13T14:03:41;3.83;;;1.45;;
30303;SDS011;17112;48.636;10.152;2023-07-13T14:06:08;2.40;;;0.90;;
30303;SDS011;17112;48.636;10.152;2023-07-13T14:08:38;2.13;;;0.88;;
30303;SDS011;17112;48.636;10.152;2023-07-13T14:11:03;3.40;;;0.85;;
30303;SDS011;17112;48.636;10.152;2023-07-13T14:13:35;4.65;;;1.08;;
30303;SDS011;17112;48.636;10.152;2023-07-13T14:16:09;2.63;;;0.85;;
30303;SDS011;17112;48.636;10.152;2023-07-13T14:18:42;3.88;;;0.85;;
30303;SDS011;17112;48.636;10.152;2023-07-13T14:21:13;2.42;;;1.00;;
30303;SDS011;17112;48.636;10.152;2023-07-13T14:23:44;2.97;;;0.95;;
30303;SDS011;17112;48.636;10.152;2023-07-13T14:26:14;2.60;;;1.00;;
30303;SDS011;17112;48.636;10.152;2023-07-13T14:31:13;1.05;;;0.70;;
30303;SDS011;17112;48.636;10.152;2023-07-13T14:33:39;3.05;;;0.77;;
30303;SDS011;17112;48.636;10.152;2023-07-13T14:36:23;1.90;;;0.82;;
30303;SDS011;17112;48.636;10.152;2023-07-13T14:38:50;3.85;;;0.90;;
30303;SDS011;17112;48.636;10.152;2023-07-13T14:41:16;8.00;;;0.82;;
30303;SDS011;17112;48.636;10.152;2023-07-13T14:43:42;2.45;;;1.00;;
30303;SDS011;17112;48.636;10.152;2023-07-13T14:46:11;3.55;;;1.20;;
30303;SDS011;17112;48.636;10.152;2023-07-13T14:48:49;1.95;;;0.90;;
30303;SDS011;17112;48.636;10.152;2023-07-13T14:51:15;2.50;;;1.00;;
30303;SDS011;17112;48.636;10.152;2023-07-13T14:53:41;5.10;;;1.00;;
30303;SDS011;17112;48.636;10.152;2023-07-13T14:56:10;3.70;;;0.90;;
30303;SDS011;17112;48.636;10.152;2023-07-13T14:58:37;3.25;;;0.95;;
30303;SDS011;17112;48.636;10.152;2023-07-13T15:01:08;2.13;;;0.90;;
30303;SDS011;17112;48.636;10.152;2023-07-13T15:03:39;3.28;;;1.00;;
30303;SDS011;17112;48.636;10.152;2023-07-13T15:06:10;2.08;;;0.90;;
30303;SDS011;17112;48.636;10.152;2023-07-13T15:08:37;3.17;;;0.98;;
30303;SDS011;17112;48.636;10.152;2023-07-13T15:11:02;3.03;;;0.93;;
30303;SDS011;17112;48.636;10.152;2023-07-13T15:13:30;2.65;;;1.35;;
30303;SDS011;17112;48.636;10.152;2023-07-13T15:15:56;2.75;;;0.93;;
30303;SDS011;17112;48.636;10.152;2023-07-13T15:18:22;4.53;;;1.23;;
30303;SDS011;17112;48.636;10.152;2023-07-13T15:20:50;4.70;;;1.20;;
30303;SDS011;17112;48.636;10.152;2023-07-13T15:23:21;2.10;;;0.90;;
30303;SDS011;17112;48.636;10.152;2023-07-13T15:25:51;3.88;;;1.00;;
30303;SDS011;17112;48.636;10.152;2023-07-13T15:28:17;3.25;;;0.85;;
30303;SDS011;17112;48.636;10.152;2023-07-13T15:30:44;2.65;;;1.15;;
30303;SDS011;17112;48.636;10.152;2023-07-13T15:35:36;8.18;;;1.40;;
30303;SDS011;17112;48.636;10.152;2023-07-13T15:38:10;3.22;;;0.93;;
30303;SDS011;17112;48.636;10.152;2023-07-13T15:40:39;4.60;;;0.90;;